Latest Weather Observations for Aireys Inlet

IDV60801

Issued at 6:52 pm EDT Thursday 17 October 2019 (issued every 10 minutes, with the page automatically refreshed every 10 minutes)

About weather observations | Map of weather stations | Latest weather observations for VIC | Other Formats
Station Details ID: 090180 Name: AIREYS INLET Lat: -38.46 Lon: 144.09 Height: 105.0 m
Data from the previous 72 hours. | See also: Recent months at Aireys Inlet
Date/Time
EDT
Temp
°C
App
Temp
°C
Dew
Point
°C
Rel
Hum
%
Delta-T
°C
Wind Press
QNH
hPa
Press
MSL
hPa
Rain since
9am
mm
Dir  Spd
km/h
Gust
km/h
Spd
kts
Gust
kts
17/06:30pm 12.2 6.8 6.5 68 2.7 WSW 24 37 13 20 - - 0.2
17/06:00pm 12.4 7.5 7.1 70 2.6 WSW 22 33 12 18 - - 0.2
17/05:30pm 12.3 8.1 8.4 77 1.9 WSW 20 35 11 19 - - 0.2
17/05:00pm 12.8 8.5 7.7 71 2.5 SW 20 32 11 17 - - 0.2
17/04:30pm 13.0 7.8 7.2 68 2.8 SW 24 37 13 20 - - 0.2
17/04:00pm 13.2 6.3 6.3 63 3.3 WSW 32 46 17 25 - - 0.2
17/03:30pm 13.1 5.5 5.8 61 3.5 WSW 35 56 19 30 - - 0.2
17/03:25pm 13.6 6.1 4.7 55 4.1 WSW 33 56 18 30 - - 0.2
17/03:00pm 14.8 9.2 5.6 54 4.4 WSW 24 43 13 23 - - 0.2
17/02:30pm 16.6 13.4 9.8 64 3.6 WSW 17 26 9 14 - - 0.2
17/02:00pm 12.8 8.3 8.7 76 2.1 W 22 35 12 19 - - 0.2
17/01:30pm 12.7 6.9 7.8 72 2.4 WNW 28 48 15 26 - - 0.2
17/01:00pm 12.0 6.1 7.7 75 2.1 WNW 28 48 15 26 - - 0.2
17/12:30pm 10.3 4.2 6.5 77 1.8 WNW 28 54 15 29 - - 0.2
17/12:10pm 10.7 4.5 6.3 74 2.1 W 28 52 15 28 - - 0.2
17/12:00pm 10.6 5.2 6.2 74 2.1 WNW 24 52 13 28 - - 0.2
17/11:31am 10.5 4.5 7.0 79 1.7 WNW 28 50 15 27 - - 0.2
17/11:30am 10.3 4.6 6.8 79 1.7 WNW 26 50 14 27 - - 0.2
17/11:21am 10.1 3.8 7.2 82 1.4 WNW 30 48 16 26 - - 0.2
17/11:00am 10.0 4.8 7.3 83 1.3 WNW 24 48 13 26 - - 0.2
17/10:30am 9.6 4.4 7.4 86 1.0 WNW 24 43 13 23 - - 0.2
17/10:00am 9.0 3.7 6.8 86 1.0 WNW 24 39 13 21 - - 0.2
17/09:30am 8.9 3.0 7.4 90 0.7 WNW 28 46 15 25 - - 0.0
17/09:22am 8.6 2.5 6.4 86 1.0 WNW 28 48 15 26 - - 0.0
17/09:00am 8.2 3.3 7.0 92 0.6 WNW 22 33 12 18 - - 5.8
17/08:30am 7.8 2.0 6.3 90 0.7 WNW 26 46 14 25 - - 5.6
17/08:25am 7.7 1.5 6.0 89 0.8 WNW 28 46 15 25 - - 5.6
17/08:00am 7.4 1.9 5.7 89 0.8 WNW 24 44 13 24 - - 5.6
17/07:44am 7.3 1.0 5.6 89 0.8 WNW 28 50 15 27 - - 5.6
17/07:30am 7.2 1.2 5.5 89 0.8 WNW 26 46 14 25 - - 5.6
17/07:03am 7.9 1.6 5.5 85 1.1 WNW 28 50 15 27 - - 5.4
17/07:00am 8.0 2.0 5.5 84 1.1 WNW 26 50 14 27 - - 5.4
17/06:30am 7.9 2.3 5.4 84 1.1 NW 24 37 13 20 - - 5.4
17/06:17am 8.0 1.2 5.1 82 1.3 NW 30 54 16 29 - - 5.4
17/06:00am 8.0 2.4 5.3 83 1.2 NW 24 37 13 20 - - 5.4
17/05:30am 8.1 4.6 5.4 83 1.2 W 13 24 7 13 - - 5.4
17/05:00am 8.3 6.0 5.9 85 1.1 W 7 26 4 14 - - 5.4
17/04:30am 8.6 5.3 6.4 86 1.0 NW 13 28 7 15 - - 5.4
17/04:00am 8.7 3.8 7.0 89 0.8 WNW 22 39 12 21 - - 5.4
17/03:30am 8.6 5.9 7.5 93 0.5 NW 11 24 6 13 - - 5.4
17/03:00am 8.5 4.3 7.6 94 0.4 NW 19 35 10 19 - - 5.4
17/02:30am 8.2 3.4 7.4 95 0.4 NW 22 35 12 19 - - 4.6
17/02:12am 9.2 5.0 8.4 95 0.4 NNW 20 52 11 28 - - 2.2
17/02:00am 9.6 7.2 8.8 95 0.4 N 11 19 6 10 - - 1.4
17/01:30am 9.3 7.6 8.5 95 0.4 NNW 7 9 4 5 - - 1.4
17/01:00am 9.3 7.3 8.5 95 0.4 NNE 9 13 5 7 - - 1.4
17/12:30am 9.7 7.8 8.9 95 0.4 NNE 9 13 5 7 - - 1.4
17/12:00am 10.2 9.0 9.4 95 0.4 N 6 7 3 4 - - 1.4
 
Date/Time
EDT
Temp
°C
App
Temp
°C
Dew
Point
°C
Rel
Hum
%
Delta-T
°C
Wind Press
QNH
hPa
Press
MSL
hPa
Rain since
9am
mm
Dir  Spd
km/h
Gust
km/h
Spd
kts
Gust
kts
16/11:30pm 10.8 9.6 9.6 92 0.6 N 6 7 3 4 - - 1.4
16/11:00pm 11.2 10.4 9.5 89 0.9 NW 4 6 2 3 - - 1.4
16/10:30pm 11.7 11.6 9.4 86 1.2 CALM 0 0 0 0 - - 1.4
16/10:00pm 11.8 11.7 9.5 86 1.2 CALM 0 0 0 0 - - 1.4
16/09:30pm 11.8 11.7 9.4 85 1.2 CALM 0 2 0 1 - - 1.4
16/09:00pm 11.8 10.6 9.4 85 1.2 S 6 9 3 5 - - 1.4
16/08:30pm 11.8 10.4 9.7 87 1.1 SW 7 11 4 6 - - 1.4
16/08:00pm 11.7 9.6 9.6 87 1.1 SSW 11 17 6 9 - - 1.4
16/07:30pm 12.1 10.0 9.7 85 1.2 S 11 19 6 10 - - 1.4
16/07:00pm 12.5 10.4 9.7 83 1.4 SSW 11 20 6 11 - - 1.4
16/06:30pm 12.9 9.8 10.4 85 1.3 SSW 17 22 9 12 - - 1.4
16/06:00pm 12.9 9.2 10.1 83 1.4 SW 20 30 11 16 - - 1.4
16/05:30pm 13.3 9.8 10.8 85 1.3 SW 20 30 11 16 - - 1.4
16/05:00pm 14.3 11.1 11.1 81 1.7 SSW 19 26 10 14 - - 1.4
16/04:30pm 15.3 12.6 10.5 73 2.5 SSW 15 26 8 14 - - 1.4
16/04:00pm 14.8 11.1 11.4 80 1.8 SW 22 33 12 18 - - 1.4
16/03:30pm 14.2 8.9 9.8 75 2.3 SW 28 46 15 25 - - 1.4
16/03:11pm 13.2 8.5 11.9 92 0.7 SW 28 46 15 25 - - 1.4
16/03:00pm 12.6 7.5 10.7 88 1.0 SW 28 43 15 23 - - 1.4
16/02:30pm 15.8 14.3 12.0 78 2.1 SSE 11 17 6 9 - - 1.4
16/02:00pm 15.8 14.7 12.0 78 2.1 SSE 9 17 5 9 - - 1.4
16/01:30pm 15.0 14.3 12.0 82 1.6 SSE 7 15 4 8 - - 1.4
16/01:00pm 14.6 13.9 12.1 85 1.4 SSE 7 11 4 6 - - 1.4
16/12:30pm 14.8 14.7 12.1 84 1.5 ESE 4 11 2 6 - - 1.4
16/12:00pm 14.1 13.6 12.1 88 1.1 SE 6 11 3 6 - - 1.4
16/11:30am 14.2 13.7 12.2 88 1.1 NNE 6 9 3 5 - - 1.4
16/11:00am 13.9 13.7 13.0 94 0.5 NNE 6 11 3 6 - - 1.4
16/10:30am 13.1 12.5 12.3 95 0.4 NNE 7 13 4 7 - - 1.4
16/10:00am 13.0 13.0 12.4 96 0.3 NE 4 6 2 3 - - 1.4
16/09:30am 12.0 12.1 11.4 96 0.3 NW 2 6 1 3 - - 1.4
16/09:00am 11.8 12.1 11.0 95 0.4 CALM 0 4 0 2 - - 1.0
16/08:30am 11.7 11.2 10.9 95 0.4 NNE 4 7 2 4 - - 1.0
16/08:00am 11.5 11.0 10.7 95 0.4 NNE 4 6 2 3 - - 0.8
16/07:30am 11.4 10.9 10.6 95 0.4 NNE 4 6 2 3 - - 0.8
16/07:00am 11.2 10.6 10.4 95 0.4 N 4 6 2 3 - - 0.8
16/06:30am 11.1 10.9 10.3 95 0.4 NNE 2 4 1 2 - - 0.8
16/06:00am 11.2 10.6 10.4 95 0.4 NNW 4 4 2 2 - - 0.8
16/05:30am 11.2 10.6 10.4 95 0.4 NNW 4 6 2 3 - - 0.8
16/05:00am 11.3 11.5 10.5 95 0.4 CALM 0 0 0 0 - - 0.8
16/04:30am 11.3 10.7 10.5 95 0.4 ESE 4 6 2 3 - - 0.8
16/04:00am 11.2 11.4 10.4 95 0.4 CALM 0 0 0 0 - - 0.8
16/03:30am 11.1 11.2 10.3 95 0.4 CALM 0 2 0 1 - - 0.8
16/03:00am 11.1 10.9 10.3 95 0.4 W 2 4 1 2 - - 0.8
16/02:30am 11.1 10.5 10.3 95 0.4 WNW 4 4 2 2 - - 0.8
16/02:00am 11.2 11.0 10.4 95 0.4 WNW 2 4 1 2 - - 0.8
16/01:30am 11.4 10.9 10.6 95 0.4 NW 4 6 2 3 - - 0.8
16/01:00am 11.3 11.5 10.5 95 0.4 CALM 0 0 0 0 - - 0.8
16/12:30am 11.5 11.7 10.7 95 0.4 CALM 0 0 0 0 - - 0.8
16/12:00am 11.7 12.0 10.8 94 0.5 CALM 0 0 0 0 - - 0.8
 
Date/Time
EDT
Temp
°C
App
Temp
°C
Dew
Point
°C
Rel
Hum
%
Delta-T
°C
Wind Press
QNH
hPa
Press
MSL
hPa
Rain since
9am
mm
Dir  Spd
km/h
Gust
km/h
Spd
kts
Gust
kts
15/11:30pm 11.6 11.9 10.8 95 0.4 CALM 0 4 0 2 - - 0.8
15/11:00pm 11.6 11.1 10.8 95 0.4 SW 4 7 2 4 - - 0.8
15/10:30pm 11.6 10.7 10.8 95 0.4 SSW 6 9 3 5 - - 0.8
15/10:00pm 11.6 10.2 10.8 95 0.4 SSW 9 11 5 6 - - 0.8
15/09:30pm 11.9 10.9 11.1 95 0.4 S 7 13 4 7 - - 0.8
15/09:00pm 12.3 12.0 11.5 95 0.4 SSE 4 7 2 4 - - 0.4
15/08:30pm 12.3 12.4 11.5 95 0.4 S 2 4 1 2 - - 0.4
15/08:00pm 12.3 11.6 11.5 95 0.4 SSW 6 9 3 5 - - 0.2
15/07:30pm 12.5 11.6 11.4 93 0.6 SSW 7 15 4 8 - - 0.2
15/07:00pm 13.2 11.3 10.6 84 1.4 S 11 17 6 9 - - 0.0
15/06:30pm 13.8 12.3 10.4 80 1.8 S 9 17 5 9 - - 0.0
15/06:00pm 13.9 12.8 9.9 77 2.1 S 6 7 3 4 - - 0.0
15/05:30pm 14.4 13.7 10.0 75 2.3 SSE 4 7 2 4 - - 0.0
15/05:00pm 14.8 13.8 10.4 75 2.3 SE 6 9 3 5 - - 0.0
15/04:30pm 17.0 16.1 11.5 70 3.0 S 7 11 4 6 - - 0.0
15/04:00pm 16.0 14.7 11.4 74 2.5 S 9 13 5 7 - - 0.0
15/03:30pm 15.4 12.8 9.3 67 3.2 S 13 19 7 10 - - 0.0
15/03:00pm 15.6 13.7 9.1 65 3.4 S 9 17 5 9 - - 0.0
15/02:30pm 15.5 14.1 9.0 65 3.3 SSE 6 13 3 7 - - 0.0
15/02:00pm 14.2 12.7 8.6 69 2.8 SE 6 11 3 6 - - 0.0
15/01:30pm 14.2 11.4 8.4 68 2.9 ESE 13 20 7 11 - - 0.0
15/01:00pm 15.2 12.3 8.0 62 3.6 E 13 19 7 10 - - 0.0
15/12:30pm 16.5 15.0 9.0 61 3.9 NNW 7 11 4 6 - - 0.0
15/12:00pm 16.2 14.1 8.4 60 4.0 N 9 19 5 10 - - 0.0
15/11:30am 15.2 14.2 8.7 65 3.3 S 4 9 2 5 - - 0.0
15/11:00am 14.8 13.3 8.5 66 3.2 SSW 6 11 3 6 - - 0.0
15/10:30am 14.1 13.0 8.5 69 2.8 SSW 4 9 2 5 - - 0.0
15/10:00am 13.3 12.1 8.2 71 2.5 SSW 4 6 2 3 - - 0.0
15/09:30am 12.9 11.8 8.4 74 2.2 WSW 4 6 2 3 - - 0.0
15/09:00am 12.4 11.6 8.1 75 2.1 W 2 4 1 2 - - 0.0
15/08:30am 11.8 10.6 7.9 77 1.9 NNW 4 6 2 3 - - 0.0
15/08:00am 10.8 9.5 7.7 81 1.5 NW 4 6 2 3 - - 0.0
15/07:30am 10.3 8.5 7.2 81 1.5 NW 6 6 3 3 - - 0.0
15/07:00am 9.9 7.4 6.4 79 1.6 W 9 11 5 6 - - 0.0
15/06:30am 10.1 7.7 6.8 80 1.6 WSW 9 11 5 6 - - 0.0
15/06:00am 10.3 8.3 7.2 81 1.5 WSW 7 9 4 5 - - 0.0
15/05:30am 10.2 8.3 7.4 83 1.3 W 7 11 4 6 - - 0.0
15/05:00am 10.1 8.1 7.3 83 1.3 WNW 7 9 4 5 - - 0.0
15/04:30am 10.1 7.7 7.2 82 1.4 W 9 13 5 7 - - 0.0
15/04:00am 10.5 8.6 7.4 81 1.5 WNW 7 9 4 5 - - 0.0
15/03:30am 9.9 7.6 7.5 85 1.2 NW 9 13 5 7 - - 0.0
15/03:00am 10.3 8.0 7.4 82 1.4 WNW 9 13 5 7 - - 0.0
15/02:30am 10.6 8.7 7.5 81 1.5 W 7 11 4 6 - - 0.0
15/02:00am 10.5 8.6 7.4 81 1.5 W 7 9 4 5 - - 0.0
15/01:30am 10.4 8.4 7.3 81 1.5 WSW 7 11 4 6 - - 0.0
15/01:00am 10.5 7.5 7.9 84 1.3 SW 13 22 7 12 - - 0.0
15/12:30am 11.0 8.5 8.4 84 1.3 SW 11 17 6 9 - - 0.0
15/12:00am 11.3 7.8 8.7 84 1.3 SW 17 26 9 14 - - 0.0
 
Date/Time
EDT
Temp
°C
App
Temp
°C
Dew
Point
°C
Rel
Hum
%
Delta-T
°C
Wind Press
QNH
hPa
Press
MSL
hPa
Rain since
9am
mm
Dir  Spd
km/h
Gust
km/h
Spd
kts
Gust
kts
14/11:30pm 11.6 7.5 8.6 82 1.5 SW 20 32 11 17 - - 0.0
14/11:00pm 12.1 8.1 9.1 82 1.5 SW 20 32 11 17 - - 0.0
14/10:30pm 12.5 8.8 10.0 85 1.3 SW 20 33 11 18 - - 0.0
14/10:00pm 12.7 9.2 10.2 85 1.3 SW 19 32 10 17 - - 0.0
14/09:30pm 12.9 9.7 11.3 90 0.8 SW 19 28 10 15 - - 0.0
14/09:00pm 12.8 9.0 11.2 90 0.8 SW 22 33 12 18 - - 0.0
14/08:30pm 13.0 9.6 11.2 89 1.0 SW 20 33 11 18 - - 0.0
14/08:00pm 13.2 10.0 11.3 88 1.0 SW 19 33 10 18 - - 0.0
14/07:30pm 13.2 9.1 11.4 89 1.0 SW 24 39 13 21 - - 0.0
14/07:00pm 13.7 10.0 11.6 87 1.1 SW 22 35 12 19 - - 0.0

Other formats

Comma delimited format used in spreadsheet applications
http://www.bom.gov.au/fwo/IDV60801/IDV60801.94846.axf

JavaScript Object Notation format (JSON) in row-major order
http://www.bom.gov.au/fwo/IDV60801/IDV60801.94846.json

Data quality

Most of these data are generated automatically and are frequently updated. Quality checks on data are not normally performed. It is possible for incorrect values to appear. Refer to information at About Latest Weather Observations and please check the disclaimer before using these data.